Terminal Aerodrome Forecast
Issued by NWS Cleveland, OH

Home | Current Version | Previous Version | Graphics & Text | Print | Product List | Glossary On
Versions: 1 2 3 4 5 6 7 8 9 10 11 12 13 14 15
150
FTUS41 KCLE 051131
TAFCAK
TAF
KCAK 051131Z 0512/0612 28010G18KT P6SM SCT008 OVC015
      TEMPO 0512/0515 BKN008
     FM051600 25010KT P6SM SCT015 OVC025
     FM052300 VRB04KT P6SM SCT025 BKN200
     FM060800 09008KT P6SM SCT100 OVC200=

USA.gov is the U.S. government's official web portal to all federal, state and local government web resources and services.